createdAt,value
2022-12-15T00:00:03.025Z,-6.52
2022-12-15T00:01:03.093Z,-6.51
2022-12-15T00:02:03.140Z,-6.52
2022-12-15T00:03:03.155Z,-6.52
2022-12-15T00:04:03.000Z,-6.54
2022-12-15T00:05:02.989Z,-6.55
2022-12-15T00:06:02.955Z,-6.55
2022-12-15T00:07:03.075Z,-6.58
2022-12-15T00:08:02.952Z,-6.58
2022-12-15T00:09:02.941Z,-6.58
2022-12-15T00:10:02.912Z,-6.61
2022-12-15T00:11:02.950Z,-6.64
2022-12-15T00:12:04.374Z,-6.64
2022-12-15T00:13:04.323Z,-6.64
2022-12-15T00:14:03.083Z,-6.66
2022-12-15T00:15:04.408Z,-6.67
2022-12-15T00:16:03.026Z,-6.66
2022-12-15T00:17:02.868Z,-6.69
2022-12-15T00:18:02.949Z,-6.71
2022-12-15T00:19:02.933Z,-6.71
2022-12-15T00:20:02.804Z,-6.74
2022-12-15T00:21:02.995Z,-6.73
2022-12-15T00:22:02.798Z,-6.73
2022-12-15T00:23:02.828Z,-6.70
2022-12-15T00:24:02.809Z,-6.70
2022-12-15T00:25:02.965Z,-6.69
2022-12-15T00:26:02.755Z,-6.70
2022-12-15T00:27:02.752Z,-6.70
2022-12-15T00:28:02.730Z,-6.70
2022-12-15T00:29:02.741Z,-6.70
2022-12-15T00:30:02.693Z,-6.70
2022-12-15T00:31:02.986Z,-6.69
2022-12-15T00:32:03.677Z,-6.70
2022-12-15T00:33:02.746Z,-6.66
2022-12-15T00:34:04.152Z,-6.66
2022-12-15T00:35:04.420Z,-6.66
2022-12-15T00:36:02.702Z,-6.63
2022-12-15T00:37:03.029Z,-6.61
2022-12-15T00:38:02.728Z,-6.64
2022-12-15T00:39:04.159Z,-6.64
2022-12-15T00:40:02.656Z,-6.64
2022-12-15T00:41:02.667Z,-6.64
2022-12-15T00:42:02.623Z,-6.63
2022-12-15T00:43:02.621Z,-6.64
2022-12-15T00:44:02.841Z,-6.64
2022-12-15T00:45:03.936Z,-6.66
2022-12-15T00:46:02.637Z,-6.70
2022-12-15T00:47:03.213Z,-6.73
2022-12-15T00:48:03.528Z,-6.77
2022-12-15T00:49:04.152Z,-6.79
2022-12-15T00:50:02.560Z,-6.81
2022-12-15T00:51:02.553Z,-6.81
2022-12-15T00:52:02.512Z,-6.77
2022-12-15T00:53:02.518Z,-6.76
2022-12-15T00:54:02.512Z,-6.76
2022-12-15T00:55:02.556Z,-6.76
2022-12-15T00:56:02.459Z,-6.77
2022-12-15T00:57:02.510Z,-6.77
2022-12-15T00:58:02.414Z,-6.81
2022-12-15T00:59:02.489Z,-6.81
2022-12-15T01:00:03.339Z,-6.84
2022-12-15T01:01:02.431Z,-6.85
2022-12-15T01:02:02.539Z,-6.85
2022-12-15T01:03:02.636Z,-6.88
2022-12-15T01:04:02.624Z,-6.92
2022-12-15T01:05:02.430Z,-6.97
2022-12-15T01:06:02.341Z,-6.95
2022-12-15T01:07:02.355Z,-6.95
2022-12-15T01:08:02.316Z,-6.99
2022-12-15T01:09:02.394Z,-6.97
2022-12-15T01:10:02.383Z,-6.97
2022-12-15T01:11:03.829Z,-6.95
2022-12-15T01:12:02.287Z,-6.92
2022-12-15T01:13:03.796Z,-6.91
2022-12-15T01:14:03.006Z,-6.88
2022-12-15T01:15:03.760Z,-6.87
2022-12-15T01:16:03.759Z,-6.84
2022-12-15T01:17:03.733Z,-6.84
2022-12-15T01:18:02.272Z,-6.82
2022-12-15T01:19:02.273Z,-6.79
2022-12-15T01:20:02.205Z,-6.73
2022-12-15T01:21:02.231Z,-6.76
2022-12-15T01:22:02.223Z,-6.73
2022-12-15T01:23:02.213Z,-6.73
2022-12-15T01:24:02.212Z,-6.74
2022-12-15T01:25:02.206Z,-6.74
2022-12-15T01:26:02.185Z,-6.71
2022-12-15T01:27:02.186Z,-6.70
2022-12-15T01:28:02.125Z,-6.70
2022-12-15T01:29:03.663Z,-6.70
2022-12-15T01:30:03.576Z,-6.70
2022-12-15T01:31:02.236Z,-6.71
2022-12-15T01:32:02.169Z,-6.71
2022-12-15T01:33:02.084Z,-6.74
2022-12-15T01:34:02.085Z,-6.77
2022-12-15T01:35:02.104Z,-6.81
2022-12-15T01:36:02.046Z,-6.82
2022-12-15T01:37:02.058Z,-6.84
2022-12-15T01:38:02.095Z,-6.85
2022-12-15T01:39:02.013Z,-6.85
2022-12-15T01:40:02.020Z,-6.87
2022-12-15T01:41:02.049Z,-6.85
2022-12-15T01:42:03.482Z,-6.87
2022-12-15T01:43:02.055Z,-6.87
2022-12-15T01:44:02.032Z,-6.87
2022-12-15T01:45:02.025Z,-6.90
2022-12-15T01:46:01.924Z,-6.91
2022-12-15T01:47:02.070Z,-6.95
2022-12-15T01:48:01.906Z,-6.97
2022-12-15T01:49:02.665Z,-6.99
2022-12-15T01:50:01.895Z,-7.00
2022-12-15T01:51:01.938Z,-7.03
2022-12-15T01:52:01.903Z,-7.06
2022-12-15T01:53:01.863Z,-7.12
2022-12-15T01:54:01.967Z,-7.16
2022-12-15T01:55:01.940Z,-7.23
2022-12-15T01:56:01.829Z,-7.24
2022-12-15T01:57:02.839Z,-7.30
2022-12-15T01:58:01.852Z,-7.31
2022-12-15T01:59:01.820Z,-7.29
2022-12-15T02:00:01.873Z,-7.31
2022-12-15T02:01:03.430Z,-7.27
2022-12-15T02:02:08.964Z,-7.24
2022-12-15T02:03:02.895Z,-7.20
2022-12-15T02:04:02.211Z,-7.19
2022-12-15T02:05:01.758Z,-7.20
2022-12-15T02:06:01.819Z,-7.16
2022-12-15T02:07:01.807Z,-7.16
2022-12-15T02:08:11.182Z,-7.19
2022-12-15T02:09:08.800Z,-7.20
2022-12-15T02:10:01.679Z,-7.19
2022-12-15T02:11:01.698Z,-7.16
2022-12-15T02:12:01.684Z,-7.16
2022-12-15T02:13:01.678Z,-7.15
2022-12-15T02:14:01.636Z,-7.15
2022-12-15T02:15:01.695Z,-7.19
2022-12-15T02:16:01.682Z,-7.21
2022-12-15T02:17:01.649Z,-7.21
2022-12-15T02:18:01.611Z,-7.24
2022-12-15T02:19:03.109Z,-7.26
2022-12-15T02:20:03.061Z,-7.26
2022-12-15T02:21:02.621Z,-7.26
2022-12-15T02:22:01.641Z,-7.24
2022-12-15T02:23:01.583Z,-7.26
2022-12-15T02:24:01.540Z,-7.27
2022-12-15T02:25:03.062Z,-7.27
2022-12-15T02:26:03.005Z,-7.30
2022-12-15T02:27:01.541Z,-7.30
2022-12-15T02:28:01.493Z,-7.29
2022-12-15T02:29:01.505Z,-7.31
2022-12-15T02:30:01.506Z,-7.30
2022-12-15T02:31:01.503Z,-7.31
2022-12-15T02:32:01.493Z,-7.30
2022-12-15T02:33:01.470Z,-7.31
2022-12-15T02:34:01.461Z,-7.31
2022-12-15T02:35:01.441Z,-7.33
2022-12-15T02:36:01.427Z,-7.33
2022-12-15T02:37:01.422Z,-7.34
2022-12-15T02:38:02.436Z,-7.34
2022-12-15T02:39:02.892Z,-7.37
2022-12-15T02:40:01.383Z,-7.37
2022-12-15T02:41:01.394Z,-7.38
2022-12-15T02:42:01.397Z,-7.38
2022-12-15T02:43:01.407Z,-7.38
2022-12-15T02:44:01.330Z,-7.38
2022-12-15T02:45:01.369Z,-7.34
2022-12-15T02:46:01.411Z,-7.34
2022-12-15T02:47:01.314Z,-7.30
2022-12-15T02:48:01.288Z,-7.30
2022-12-15T02:49:01.327Z,-7.33
2022-12-15T02:50:01.281Z,-7.29
2022-12-15T02:51:01.297Z,-7.29
2022-12-15T02:52:01.247Z,-7.29
2022-12-15T02:53:01.338Z,-7.31
2022-12-15T02:54:02.706Z,-7.31
2022-12-15T02:55:02.701Z,-7.33
2022-12-15T02:56:01.236Z,-7.34
2022-12-15T02:57:01.258Z,-7.34
2022-12-15T02:58:02.662Z,-7.34
2022-12-15T02:59:02.672Z,-7.34
2022-12-15T03:00:01.193Z,-7.33
2022-12-15T03:01:01.242Z,-7.31
2022-12-15T03:02:01.364Z,-7.31
2022-12-15T03:03:01.473Z,-7.33
2022-12-15T03:04:01.127Z,-7.33
2022-12-15T03:05:01.200Z,-7.37
2022-12-15T03:06:02.088Z,-7.33
2022-12-15T03:07:01.634Z,-7.33
2022-12-15T03:08:01.088Z,-7.34
2022-12-15T03:09:01.100Z,-7.37
2022-12-15T03:10:01.128Z,-7.34
2022-12-15T03:11:01.107Z,-7.41
2022-12-15T03:12:01.865Z,-7.41
2022-12-15T03:13:01.150Z,-7.44
2022-12-15T03:14:01.053Z,-7.42
2022-12-15T03:15:01.043Z,-7.44
2022-12-15T03:16:01.118Z,-7.44
2022-12-15T03:17:01.141Z,-7.44
2022-12-15T03:18:01.002Z,-7.45
2022-12-15T03:19:01.027Z,-7.48
2022-12-15T03:20:00.973Z,-7.47
2022-12-15T03:21:00.985Z,-7.45
2022-12-15T03:22:00.964Z,-7.48
2022-12-15T03:23:01.223Z,-7.49
2022-12-15T03:24:02.469Z,-7.49
2022-12-15T03:25:00.950Z,-7.48
2022-12-15T03:26:00.922Z,-7.48
2022-12-15T03:27:00.939Z,-7.44
2022-12-15T03:28:00.915Z,-7.44
2022-12-15T03:29:00.911Z,-7.45
2022-12-15T03:30:02.348Z,-7.47
2022-12-15T03:31:01.243Z,-7.42
2022-12-15T03:32:00.949Z,-7.42
2022-12-15T03:33:00.880Z,-7.42
2022-12-15T03:34:00.853Z,-7.44
2022-12-15T03:35:00.959Z,-7.47
2022-12-15T03:36:00.810Z,-7.48
2022-12-15T03:37:00.832Z,-7.49
2022-12-15T03:38:00.839Z,-7.52
2022-12-15T03:39:00.824Z,-7.52
2022-12-15T03:40:00.780Z,-7.52
2022-12-15T03:41:00.790Z,-7.52
2022-12-15T03:42:00.753Z,-7.52
2022-12-15T03:43:00.760Z,-7.51
2022-12-15T03:44:00.763Z,-7.52
2022-12-15T03:45:00.775Z,-7.52
2022-12-15T03:46:02.248Z,-7.52
2022-12-15T03:47:03.724Z,-7.52
2022-12-15T03:48:02.136Z,-7.52
2022-12-15T03:49:02.167Z,-7.56
2022-12-15T03:50:01.064Z,-7.56
2022-12-15T03:51:02.158Z,-7.60
2022-12-15T03:52:02.134Z,-7.62
2022-12-15T03:53:00.716Z,-7.62
2022-12-15T03:54:00.655Z,-7.66
2022-12-15T03:55:00.642Z,-7.63
2022-12-15T03:56:00.656Z,-7.66
2022-12-15T03:57:01.549Z,-7.63
2022-12-15T03:58:00.644Z,-7.62
2022-12-15T03:59:00.817Z,-7.63
2022-12-15T04:00:01.515Z,-7.59
2022-12-15T04:01:00.622Z,-7.58
2022-12-15T04:02:00.839Z,-7.52
2022-12-15T04:03:00.689Z,-7.52
2022-12-15T04:04:01.571Z,-7.56
2022-12-15T04:05:00.554Z,-7.51
2022-12-15T04:06:00.560Z,-7.51
2022-12-15T04:07:00.500Z,-7.48
2022-12-15T04:08:00.559Z,-7.51
2022-12-15T04:09:00.503Z,-7.48
2022-12-15T04:10:00.498Z,-7.45
2022-12-15T04:11:00.501Z,-7.42
2022-12-15T04:12:00.509Z,-7.44
2022-12-15T04:13:00.430Z,-7.44
2022-12-15T04:14:00.476Z,-7.47
2022-12-15T04:15:00.416Z,-7.44
2022-12-15T04:16:01.903Z,-7.45
2022-12-15T04:17:01.932Z,-7.47
2022-12-15T04:18:00.446Z,-7.48
2022-12-15T04:19:00.406Z,-7.49
2022-12-15T04:20:00.427Z,-7.54
2022-12-15T04:21:00.363Z,-7.56
2022-12-15T04:22:00.364Z,-7.58
2022-12-15T04:23:00.373Z,-7.59
2022-12-15T04:24:00.387Z,-7.60
2022-12-15T04:25:00.320Z,-7.60
2022-12-15T04:26:00.403Z,-7.60
2022-12-15T04:27:00.295Z,-7.59
2022-12-15T04:28:01.826Z,-7.60
2022-12-15T04:29:00.281Z,-7.59
2022-12-15T04:30:00.303Z,-7.60
2022-12-15T04:31:00.304Z,-7.62
2022-12-15T04:32:00.289Z,-7.63
2022-12-15T04:33:00.273Z,-7.68
2022-12-15T04:34:00.253Z,-7.74
2022-12-15T04:35:00.221Z,-7.74
2022-12-15T04:36:01.019Z,-7.76
2022-12-15T04:37:01.706Z,-7.72
2022-12-15T04:38:00.299Z,-7.74
2022-12-15T04:39:00.253Z,-7.72
2022-12-15T04:40:00.224Z,-7.69
2022-12-15T04:41:00.167Z,-7.69
2022-12-15T04:42:00.176Z,-7.65
2022-12-15T04:43:00.133Z,-7.65
2022-12-15T04:44:00.172Z,-7.60
2022-12-15T04:45:00.141Z,-7.60
2022-12-15T04:46:00.237Z,-7.59
2022-12-15T04:47:00.128Z,-7.56
2022-12-15T04:48:00.174Z,-7.56
2022-12-15T04:49:00.100Z,-7.54
2022-12-15T04:50:01.070Z,-7.52
2022-12-15T04:51:01.530Z,-7.51
2022-12-15T04:52:01.573Z,-7.48
2022-12-15T04:53:00.572Z,-7.47
2022-12-15T04:54:00.321Z,-7.44
2022-12-15T04:55:00.297Z,-7.39
2022-12-15T04:56:00.075Z,-7.34
2022-12-15T04:57:00.029Z,-7.33
2022-12-15T04:58:00.020Z,-7.30
2022-12-15T04:58:59.980Z,-7.31
2022-12-15T04:59:59.991Z,-7.27
2022-12-15T05:01:00.064Z,-7.26
2022-12-15T05:02:00.116Z,-7.24
2022-12-15T05:02:59.954Z,-7.16
2022-12-15T05:03:59.951Z,-7.10
2022-12-15T05:04:59.917Z,-7.08
2022-12-15T05:06:00.066Z,-7.02
2022-12-15T05:06:59.917Z,-6.95
2022-12-15T05:08:00.259Z,-6.92
2022-12-15T05:08:59.891Z,-6.91
2022-12-15T05:10:03.105Z,-6.88
2022-12-15T05:10:59.868Z,-6.85
2022-12-15T05:11:59.884Z,-6.87
2022-12-15T05:12:59.837Z,-6.88
2022-12-15T05:13:59.870Z,-6.88
2022-12-15T05:14:59.834Z,-6.87
2022-12-15T05:15:59.892Z,-6.87
2022-12-15T05:16:59.876Z,-6.85
2022-12-15T05:17:59.839Z,-6.85
2022-12-15T05:18:59.872Z,-6.82
2022-12-15T05:20:01.283Z,-6.82
2022-12-15T05:20:59.804Z,-6.79
2022-12-15T05:21:59.786Z,-6.77
2022-12-15T05:22:59.750Z,-6.77
2022-12-15T05:23:59.793Z,-6.77
2022-12-15T05:24:59.736Z,-6.79
2022-12-15T05:25:59.750Z,-6.79
2022-12-15T05:27:01.163Z,-6.79
2022-12-15T05:28:00.131Z,-6.77
2022-12-15T05:29:00.310Z,-6.76
2022-12-15T05:29:59.761Z,-6.74
2022-12-15T05:30:59.725Z,-6.76
2022-12-15T05:31:59.711Z,-6.73
2022-12-15T05:32:59.668Z,-6.71
2022-12-15T05:34:05.061Z,-6.69
2022-12-15T05:35:00.633Z,-6.67
2022-12-15T05:35:59.674Z,-6.66
2022-12-15T05:36:59.604Z,-6.67
2022-12-15T05:37:59.631Z,-6.67
2022-12-15T05:38:59.613Z,-6.66
2022-12-15T05:39:59.594Z,-6.64
2022-12-15T05:40:59.613Z,-6.61
2022-12-15T05:41:59.618Z,-6.61
2022-12-15T05:42:59.542Z,-6.61
2022-12-15T05:44:01.025Z,-6.64
2022-12-15T05:45:00.980Z,-6.64
2022-12-15T05:46:01.064Z,-6.64
2022-12-15T05:46:59.513Z,-6.64
2022-12-15T05:47:59.552Z,-6.66
2022-12-15T05:48:59.478Z,-6.69
2022-12-15T05:49:59.483Z,-6.69
2022-12-15T05:50:59.468Z,-6.67
2022-12-15T05:51:59.485Z,-6.66
2022-12-15T05:52:59.609Z,-6.66
2022-12-15T05:54:00.283Z,-6.66
2022-12-15T05:54:59.405Z,-6.69
2022-12-15T05:55:59.455Z,-6.69
2022-12-15T05:56:59.383Z,-6.69
2022-12-15T05:57:59.466Z,-6.69
2022-12-15T05:58:59.431Z,-6.71
2022-12-15T05:59:59.418Z,-6.76
2022-12-15T06:00:59.377Z,-6.76
2022-12-15T06:01:59.433Z,-6.74
2022-12-15T06:03:08.456Z,-6.79
2022-12-15T06:03:59.357Z,-6.82
2022-12-15T06:04:59.361Z,-6.82
2022-12-15T06:05:59.333Z,-6.85
2022-12-15T06:06:59.317Z,-6.88
2022-12-15T06:07:59.343Z,-6.91
2022-12-15T06:08:59.290Z,-6.92
2022-12-15T06:09:59.301Z,-6.91
2022-12-15T06:10:59.273Z,-6.92
2022-12-15T06:11:59.271Z,-6.90
2022-12-15T06:12:59.249Z,-6.90
2022-12-15T06:13:59.256Z,-6.90
2022-12-15T06:14:59.234Z,-6.91
2022-12-15T06:15:59.245Z,-6.91
2022-12-15T06:16:59.268Z,-6.90
2022-12-15T06:18:00.671Z,-6.87
2022-12-15T06:19:00.144Z,-6.88
2022-12-15T06:20:00.649Z,-6.87
2022-12-15T06:20:59.151Z,-6.87
2022-12-15T06:21:59.193Z,-6.85
2022-12-15T06:22:59.143Z,-6.87
2022-12-15T06:23:59.152Z,-6.85
2022-12-15T06:24:59.135Z,-6.84
2022-12-15T06:25:59.130Z,-6.81
2022-12-15T06:26:59.080Z,-6.81
2022-12-15T06:28:01.857Z,-6.84
2022-12-15T06:28:59.061Z,-6.82
2022-12-15T06:29:59.091Z,-6.84
2022-12-15T06:30:59.101Z,-6.85
2022-12-15T06:31:59.062Z,-6.88
2022-12-15T06:32:59.031Z,-6.88
2022-12-15T06:34:02.119Z,-6.90
2022-12-15T06:34:59.009Z,-6.88
2022-12-15T06:35:59.030Z,-6.88
2022-12-15T06:36:58.997Z,-6.88
2022-12-15T06:37:59.087Z,-6.90
2022-12-15T06:38:58.996Z,-6.88
2022-12-15T06:39:59.005Z,-6.88
2022-12-15T06:40:58.942Z,-6.85
2022-12-15T06:41:58.991Z,-6.81
2022-12-15T06:42:59.864Z,-6.79
2022-12-15T06:43:59.029Z,-6.76
2022-12-15T06:44:59.719Z,-6.73
2022-12-15T06:45:58.944Z,-6.69
2022-12-15T06:46:59.006Z,-6.64
2022-12-15T06:48:01.490Z,-6.63
2022-12-15T06:48:58.865Z,-6.59
2022-12-15T06:49:58.886Z,-6.63
2022-12-15T06:50:58.874Z,-6.61
2022-12-15T06:51:58.875Z,-6.59
2022-12-15T06:52:58.862Z,-6.55
2022-12-15T06:53:58.846Z,-6.58
2022-12-15T06:54:58.815Z,-6.52
2022-12-15T06:55:58.866Z,-6.52
2022-12-15T06:56:58.795Z,-6.52
2022-12-15T06:57:58.809Z,-6.52
2022-12-15T06:58:58.804Z,-6.50
2022-12-15T06:59:58.806Z,-6.47
2022-12-15T07:00:58.788Z,-6.44
2022-12-15T07:01:58.976Z,-6.40
2022-12-15T07:02:58.947Z,-6.39
2022-12-15T07:03:58.963Z,-6.37
2022-12-15T07:04:58.718Z,-6.36
2022-12-15T07:05:58.736Z,-6.33
2022-12-15T07:06:58.689Z,-6.34
2022-12-15T07:07:59.652Z,-6.30
2022-12-15T07:08:58.678Z,-6.29
2022-12-15T07:09:58.694Z,-6.26
2022-12-15T07:10:58.673Z,-6.26
2022-12-15T07:11:58.706Z,-6.23
2022-12-15T07:12:58.629Z,-6.23
2022-12-15T07:13:58.649Z,-6.21
2022-12-15T07:14:58.645Z,-6.19
2022-12-15T07:16:00.170Z,-6.16
2022-12-15T07:17:00.090Z,-6.16
2022-12-15T07:17:58.629Z,-6.13
2022-12-15T07:18:58.585Z,-6.11
2022-12-15T07:19:58.622Z,-6.11
2022-12-15T07:20:58.562Z,-6.08
2022-12-15T07:21:58.570Z,-6.05
2022-12-15T07:22:58.524Z,-6.05
2022-12-15T07:23:59.582Z,-6.05
2022-12-15T07:24:58.539Z,-6.01
2022-12-15T07:25:58.578Z,-6.01
2022-12-15T07:26:58.510Z,-6.00
2022-12-15T07:27:58.537Z,-5.98
2022-12-15T07:28:58.482Z,-5.97
2022-12-15T07:29:58.475Z,-5.94
2022-12-15T07:30:58.443Z,-5.95
2022-12-15T07:31:58.540Z,-5.95
2022-12-15T07:32:58.446Z,-5.92
2022-12-15T07:33:58.446Z,-5.91
2022-12-15T07:34:58.445Z,-5.92
2022-12-15T07:35:58.423Z,-5.94
2022-12-15T07:36:58.395Z,-5.98
2022-12-15T07:37:58.388Z,-5.98
2022-12-15T07:38:58.386Z,-5.98
2022-12-15T07:39:58.450Z,-5.97
2022-12-15T07:40:58.579Z,-5.95
2022-12-15T07:41:59.851Z,-5.92
2022-12-15T07:42:58.338Z,-5.88
2022-12-15T07:43:58.334Z,-5.84
2022-12-15T07:44:58.375Z,-5.80
2022-12-15T07:45:58.378Z,-5.77
2022-12-15T07:46:58.276Z,-5.74
2022-12-15T07:47:58.316Z,-5.72
2022-12-15T07:48:58.279Z,-5.69
2022-12-15T07:49:58.299Z,-5.67
2022-12-15T07:51:05.192Z,-5.65
2022-12-15T07:51:59.261Z,-5.62
2022-12-15T07:52:58.239Z,-5.62
2022-12-15T07:53:58.243Z,-5.59
2022-12-15T07:54:58.217Z,-5.56
2022-12-15T07:56:07.487Z,-5.54
2022-12-15T07:56:59.187Z,-5.54
2022-12-15T07:57:58.197Z,-5.51
2022-12-15T07:58:58.276Z,-5.51
2022-12-15T07:59:58.195Z,-5.49
2022-12-15T08:00:58.222Z,-5.45
2022-12-15T08:01:58.465Z,-5.44
2022-12-15T08:02:58.322Z,-5.43
2022-12-15T08:03:58.207Z,-5.41
2022-12-15T08:04:58.101Z,-5.38
2022-12-15T08:06:03.867Z,-5.40
2022-12-15T08:06:59.113Z,-5.37
2022-12-15T08:07:58.106Z,-5.37
2022-12-15T08:08:58.079Z,-5.35
2022-12-15T08:09:58.549Z,-5.33
2022-12-15T08:10:58.072Z,-5.31
2022-12-15T08:11:58.071Z,-5.27
2022-12-15T08:12:58.059Z,-5.27
2022-12-15T08:14:03.019Z,-5.26
2022-12-15T08:14:59.048Z,-5.26
2022-12-15T08:15:58.028Z,-5.22
2022-12-15T08:16:58.069Z,-5.22
2022-12-15T08:17:57.983Z,-5.20
2022-12-15T08:18:57.995Z,-5.17
2022-12-15T08:19:58.995Z,-5.16
2022-12-15T08:20:57.999Z,-5.16
2022-12-15T08:21:57.932Z,-5.12
2022-12-15T08:22:57.952Z,-5.07
2022-12-15T08:23:57.930Z,-5.07
2022-12-15T08:24:57.926Z,-5.03
2022-12-15T08:25:57.910Z,-5.00
2022-12-15T08:26:57.926Z,-5.00
2022-12-15T08:27:57.877Z,-5.01
2022-12-15T08:29:11.881Z,-4.98
2022-12-15T08:29:58.847Z,-4.95
2022-12-15T08:30:58.011Z,-4.94
2022-12-15T08:31:57.964Z,-4.94
2022-12-15T08:32:57.991Z,-4.89
2022-12-15T08:33:57.948Z,-4.89
2022-12-15T08:34:57.830Z,-4.86
2022-12-15T08:35:57.825Z,-4.80
2022-12-15T08:36:57.818Z,-4.79
2022-12-15T08:38:02.268Z,-4.76
2022-12-15T08:38:59.595Z,-4.73
2022-12-15T08:39:57.761Z,-4.71
2022-12-15T08:40:57.792Z,-4.64
2022-12-15T08:41:57.716Z,-4.64
2022-12-15T08:42:57.749Z,-4.62
2022-12-15T08:43:57.719Z,-4.59
2022-12-15T08:44:57.710Z,-4.59
2022-12-15T08:45:57.847Z,-4.58
2022-12-15T08:46:57.717Z,-4.57
2022-12-15T08:47:57.745Z,-4.55
2022-12-15T08:48:57.710Z,-4.54
2022-12-15T08:49:57.649Z,-4.54
2022-12-15T08:50:57.733Z,-4.51
2022-12-15T08:51:57.649Z,-4.51
2022-12-15T08:53:29.038Z,-4.50
2022-12-15T08:53:58.632Z,-4.48
2022-12-15T08:54:57.923Z,-4.47
2022-12-15T08:55:59.078Z,-4.47
2022-12-15T08:56:59.174Z,-4.50
2022-12-15T08:57:57.601Z,-4.48
2022-12-15T08:58:57.593Z,-4.50
2022-12-15T08:59:57.539Z,-4.48
2022-12-15T09:00:57.609Z,-4.48
2022-12-15T09:01:57.701Z,-4.48
2022-12-15T09:02:57.538Z,-4.47
2022-12-15T09:03:57.696Z,-4.46
2022-12-15T09:04:57.510Z,-4.44
2022-12-15T09:05:57.513Z,-4.44
2022-12-15T09:06:57.500Z,-4.43
2022-12-15T09:08:03.077Z,-4.43
2022-12-15T09:08:58.533Z,-4.41
2022-12-15T09:09:57.445Z,-4.40
2022-12-15T09:10:57.472Z,-4.38
2022-12-15T09:11:57.416Z,-4.33
2022-12-15T09:12:57.478Z,-4.29
2022-12-15T09:13:57.557Z,-4.26
2022-12-15T09:14:57.445Z,-4.23
2022-12-15T09:16:09.388Z,-4.22
2022-12-15T09:16:58.565Z,-4.19
2022-12-15T09:17:57.363Z,-4.18
2022-12-15T09:18:57.387Z,-4.18
2022-12-15T09:19:57.367Z,-4.14
2022-12-15T09:20:57.356Z,-4.18
2022-12-15T09:21:57.319Z,-4.18
2022-12-15T09:22:57.349Z,-4.15
2022-12-15T09:23:57.334Z,-4.18
2022-12-15T09:24:57.355Z,-4.15
2022-12-15T09:25:57.288Z,-4.15
2022-12-15T09:26:57.296Z,-4.12
2022-12-15T09:27:57.266Z,-4.12
2022-12-15T09:28:57.294Z,-4.11
2022-12-15T09:29:57.235Z,-4.09
2022-12-15T09:30:57.349Z,-4.07
2022-12-15T09:31:57.243Z,-4.05
2022-12-15T09:32:57.295Z,-4.04
2022-12-15T09:33:57.208Z,-4.01
2022-12-15T09:34:57.225Z,-3.99
2022-12-15T09:35:57.166Z,-3.99
2022-12-15T09:36:57.216Z,-3.98
2022-12-15T09:37:57.168Z,-3.98
2022-12-15T09:38:57.183Z,-3.94
2022-12-15T09:39:57.142Z,-3.91
2022-12-15T09:40:57.151Z,-3.91
2022-12-15T09:41:57.127Z,-3.87
2022-12-15T09:43:25.739Z,-3.84
2022-12-15T09:43:58.107Z,-3.84
2022-12-15T09:44:57.126Z,-3.83
2022-12-15T09:45:57.147Z,-3.86
2022-12-15T09:46:57.193Z,-3.83
2022-12-15T09:47:57.355Z,-3.89
2022-12-15T09:48:58.024Z,-3.90
2022-12-15T09:49:57.061Z,-3.90
2022-12-15T09:50:57.038Z,-3.91
2022-12-15T09:51:57.009Z,-3.91
2022-12-15T09:52:57.037Z,-3.91
2022-12-15T09:53:57.451Z,-3.93
2022-12-15T09:54:57.104Z,-3.91
2022-12-15T09:55:56.985Z,-3.89
2022-12-15T09:56:56.988Z,-3.86
2022-12-15T09:57:56.942Z,-3.83
2022-12-15T09:58:56.953Z,-3.80
2022-12-15T09:59:56.933Z,-3.75
2022-12-15T10:00:56.967Z,-3.72
2022-12-15T10:01:56.957Z,-3.70
2022-12-15T10:02:57.018Z,-3.68
2022-12-15T10:03:57.102Z,-3.68
2022-12-15T10:04:56.923Z,-3.65
2022-12-15T10:06:15.533Z,-3.67
2022-12-15T10:06:57.899Z,-3.64
2022-12-15T10:07:57.055Z,-3.65
2022-12-15T10:08:56.888Z,-3.62
2022-12-15T10:09:56.823Z,-3.61
2022-12-15T10:10:56.898Z,-3.57
2022-12-15T10:11:58.271Z,-3.53
2022-12-15T10:13:02.247Z,-3.49
2022-12-15T10:13:56.791Z,-3.44
2022-12-15T10:14:56.797Z,-3.43
2022-12-15T10:15:56.837Z,-3.41
2022-12-15T10:16:56.774Z,-3.41
2022-12-15T10:17:56.756Z,-3.38
2022-12-15T10:19:00.977Z,-3.35
2022-12-15T10:19:56.743Z,-3.31
2022-12-15T10:20:56.727Z,-3.31
2022-12-15T10:21:56.698Z,-3.31
2022-12-15T10:22:56.726Z,-3.29
2022-12-15T10:23:56.740Z,-3.31
2022-12-15T10:25:12.207Z,-3.32
2022-12-15T10:25:57.683Z,-3.29
2022-12-15T10:26:56.716Z,-3.28
2022-12-15T10:27:56.660Z,-3.26
2022-12-15T10:28:56.672Z,-3.25
2022-12-15T10:29:56.670Z,-3.22
2022-12-15T10:30:58.180Z,-3.20
2022-12-15T10:31:56.708Z,-3.17
2022-12-15T10:32:56.620Z,-3.11
2022-12-15T10:33:56.599Z,-3.10
2022-12-15T10:34:56.663Z,-3.10
2022-12-15T10:35:56.780Z,-3.07
2022-12-15T10:36:56.720Z,-3.07
2022-12-15T10:37:58.045Z,-3.05
2022-12-15T10:38:56.565Z,-3.04
2022-12-15T10:39:56.767Z,-3.02
2022-12-15T10:40:57.303Z,-3.00
2022-12-15T10:41:56.637Z,-2.99
2022-12-15T10:42:56.522Z,-3.00
2022-12-15T10:43:56.488Z,-2.99
2022-12-15T10:44:56.521Z,-2.97
2022-12-15T10:45:56.475Z,-2.96
2022-12-15T10:46:56.484Z,-2.94
2022-12-15T10:47:56.465Z,-2.93
2022-12-15T10:48:56.485Z,-2.93
2022-12-15T10:49:56.430Z,-2.92
2022-12-15T10:50:56.491Z,-2.89
2022-12-15T10:51:56.411Z,-2.85
2022-12-15T10:52:57.605Z,-2.82
2022-12-15T10:53:56.377Z,-2.82
2022-12-15T10:54:56.475Z,-2.82
2022-12-15T10:55:56.380Z,-2.85
2022-12-15T10:56:56.440Z,-2.82
2022-12-15T10:57:57.306Z,-2.86
2022-12-15T10:58:56.353Z,-2.87
2022-12-15T10:59:56.345Z,-2.87
2022-12-15T11:00:56.344Z,-2.86
2022-12-15T11:01:56.529Z,-2.87
2022-12-15T11:02:56.474Z,-2.90
2022-12-15T11:03:57.540Z,-2.90
2022-12-15T11:04:56.321Z,-2.90
2022-12-15T11:05:56.235Z,-2.87
2022-12-15T11:06:56.275Z,-2.86
2022-12-15T11:07:56.236Z,-2.81
2022-12-15T11:08:56.265Z,-2.78
2022-12-15T11:09:56.239Z,-2.76
2022-12-15T11:10:56.236Z,-2.74
2022-12-15T11:11:56.173Z,-2.71
2022-12-15T11:12:59.256Z,-2.69
2022-12-15T11:13:56.194Z,-2.69
2022-12-15T11:14:56.175Z,-2.68
2022-12-15T11:15:56.142Z,-2.64
2022-12-15T11:16:56.145Z,-2.61
2022-12-15T11:17:56.178Z,-2.58
2022-12-15T11:18:56.126Z,-2.54
2022-12-15T11:20:02.044Z,-2.53
2022-12-15T11:20:57.150Z,-2.47
2022-12-15T11:21:56.087Z,-2.47
2022-12-15T11:22:56.097Z,-2.45
2022-12-15T11:23:56.108Z,-2.40
2022-12-15T11:24:56.098Z,-2.43
2022-12-15T11:25:58.132Z,-2.43
2022-12-15T11:26:56.052Z,-2.42
2022-12-15T11:27:56.061Z,-2.38
2022-12-15T11:28:56.046Z,-2.33
2022-12-15T11:29:56.020Z,-2.32
2022-12-15T11:30:56.011Z,-2.33
2022-12-15T11:31:57.958Z,-2.33
2022-12-15T11:32:57.082Z,-2.32
2022-12-15T11:33:57.008Z,-2.36
2022-12-15T11:34:57.439Z,-2.39
2022-12-15T11:35:55.960Z,-2.43
2022-12-15T11:36:55.976Z,-2.43
2022-12-15T11:37:55.914Z,-2.45
2022-12-15T11:38:56.009Z,-2.47
2022-12-15T11:39:55.922Z,-2.45
2022-12-15T11:40:55.937Z,-2.43
2022-12-15T11:41:55.860Z,-2.42
2022-12-15T11:42:55.941Z,-2.43
2022-12-15T11:43:59.817Z,-2.40
2022-12-15T11:44:55.883Z,-2.38
2022-12-15T11:45:55.856Z,-2.39
2022-12-15T11:46:55.851Z,-2.36
2022-12-15T11:47:55.833Z,-2.29
2022-12-15T11:48:55.842Z,-2.26
2022-12-15T11:49:55.809Z,-2.23
2022-12-15T11:50:55.868Z,-2.20
2022-12-15T11:51:55.798Z,-2.21
2022-12-15T11:52:55.805Z,-2.20
2022-12-15T11:53:55.759Z,-2.21
2022-12-15T11:54:55.767Z,-2.26
2022-12-15T11:55:55.747Z,-2.26
2022-12-15T11:56:55.807Z,-2.23
2022-12-15T11:57:56.495Z,-2.29
2022-12-15T11:58:57.194Z,-2.32
2022-12-15T11:59:55.697Z,-2.35
2022-12-15T12:00:55.705Z,-2.38
2022-12-15T12:02:02.777Z,-2.35
2022-12-15T12:02:56.824Z,-2.35
2022-12-15T12:03:55.676Z,-2.33
2022-12-15T12:04:55.716Z,-2.28
2022-12-15T12:05:56.324Z,-2.23
2022-12-15T12:06:55.667Z,-2.20
2022-12-15T12:07:55.622Z,-2.18
2022-12-15T12:08:55.676Z,-2.20
2022-12-15T12:09:55.661Z,-2.21
2022-12-15T12:10:55.728Z,-2.23
2022-12-15T12:11:55.610Z,-2.21
2022-12-15T12:12:55.611Z,-2.20
2022-12-15T12:13:56.312Z,-2.21
2022-12-15T12:14:55.578Z,-2.24
2022-12-15T12:15:55.555Z,-2.26
2022-12-15T12:16:55.535Z,-2.26
2022-12-15T12:17:55.584Z,-2.24
2022-12-15T12:18:55.558Z,-2.24
2022-12-15T12:19:55.498Z,-2.26
2022-12-15T12:20:55.543Z,-2.28
2022-12-15T12:21:55.464Z,-2.29
2022-12-15T12:22:56.985Z,-2.35
2022-12-15T12:23:55.977Z,-2.38
2022-12-15T12:24:55.480Z,-2.39
2022-12-15T12:26:01.082Z,-2.39
2022-12-15T12:26:58.418Z,-2.40
2022-12-15T12:27:56.955Z,-2.39
2022-12-15T12:28:55.411Z,-2.38
2022-12-15T12:29:55.471Z,-2.38
2022-12-15T12:30:55.409Z,-2.42
2022-12-15T12:31:59.065Z,-2.39
2022-12-15T12:32:56.353Z,-2.40
2022-12-15T12:33:55.389Z,-2.42
2022-12-15T12:35:56.336Z,-2.43
2022-12-15T12:36:55.318Z,-2.50
2022-12-15T12:38:01.051Z,-2.54
2022-12-15T12:38:56.379Z,-2.53
2022-12-15T12:39:55.319Z,-2.53
2022-12-15T12:40:55.282Z,-2.48
2022-12-15T12:41:55.326Z,-2.48
2022-12-15T12:42:55.263Z,-2.51
2022-12-15T12:43:55.257Z,-2.51
2022-12-15T12:44:55.255Z,-2.54
2022-12-15T12:45:55.261Z,-2.58
2022-12-15T12:46:55.211Z,-2.61
2022-12-15T12:47:55.233Z,-2.63
2022-12-15T12:48:55.178Z,-2.61
2022-12-15T12:49:55.262Z,-2.61
2022-12-15T12:50:55.154Z,-2.61
2022-12-15T12:51:55.188Z,-2.60
2022-12-15T12:52:55.155Z,-2.56